sensor_id;sensor_type;location;lat;lon;timestamp;P1;durP1;ratioP1;P2;durP2;ratioP2
20069;SDS011;10195;50.868;4.382;2022-12-07T00:01:50;16.00;;;11.40;;
20069;SDS011;10195;50.868;4.382;2022-12-07T00:04:17;20.43;;;11.80;;
20069;SDS011;10195;50.868;4.382;2022-12-07T00:06:44;23.60;;;12.07;;
20069;SDS011;10195;50.868;4.382;2022-12-07T00:09:15;19.10;;;11.30;;
20069;SDS011;10195;50.868;4.382;2022-12-07T00:11:42;17.13;;;11.00;;
20069;SDS011;10195;50.868;4.382;2022-12-07T00:14:10;17.30;;;11.17;;
20069;SDS011;10195;50.868;4.382;2022-12-07T00:16:41;19.00;;;11.13;;
20069;SDS011;10195;50.868;4.382;2022-12-07T00:19:11;21.90;;;10.50;;
20069;SDS011;10195;50.868;4.382;2022-12-07T00:21:38;20.20;;;10.87;;
20069;SDS011;10195;50.868;4.382;2022-12-07T00:24:04;16.97;;;11.70;;
20069;SDS011;10195;50.868;4.382;2022-12-07T00:26:31;25.33;;;11.97;;
20069;SDS011;10195;50.868;4.382;2022-12-07T00:29:02;19.53;;;11.67;;
20069;SDS011;10195;50.868;4.382;2022-12-07T00:31:31;19.97;;;12.10;;
20069;SDS011;10195;50.868;4.382;2022-12-07T00:34:00;17.27;;;11.77;;
20069;SDS011;10195;50.868;4.382;2022-12-07T00:36:28;20.27;;;12.67;;
20069;SDS011;10195;50.868;4.382;2022-12-07T00:38:57;20.87;;;13.20;;
20069;SDS011;10195;50.868;4.382;2022-12-07T00:41:25;24.00;;;13.40;;
20069;SDS011;10195;50.868;4.382;2022-12-07T00:43:52;24.93;;;14.60;;
20069;SDS011;10195;50.868;4.382;2022-12-07T00:46:18;20.70;;;13.47;;
20069;SDS011;10195;50.868;4.382;2022-12-07T00:48:45;23.80;;;13.77;;
20069;SDS011;10195;50.868;4.382;2022-12-07T00:51:12;27.40;;;14.67;;
20069;SDS011;10195;50.868;4.382;2022-12-07T00:53:39;21.87;;;13.30;;
20069;SDS011;10195;50.868;4.382;2022-12-07T00:56:15;21.80;;;13.97;;
20069;SDS011;10195;50.868;4.382;2022-12-07T00:58:51;22.60;;;12.93;;
20069;SDS011;10195;50.868;4.382;2022-12-07T01:01:21;23.97;;;14.20;;
20069;SDS011;10195;50.868;4.382;2022-12-07T01:03:48;21.93;;;13.37;;
20069;SDS011;10195;50.868;4.382;2022-12-07T01:06:14;19.07;;;13.53;;
20069;SDS011;10195;50.868;4.382;2022-12-07T01:08:41;21.63;;;14.37;;
20069;SDS011;10195;50.868;4.382;2022-12-07T01:11:08;23.87;;;13.73;;
20069;SDS011;10195;50.868;4.382;2022-12-07T01:13:37;23.43;;;14.03;;
20069;SDS011;10195;50.868;4.382;2022-12-07T01:16:04;24.20;;;14.83;;
20069;SDS011;10195;50.868;4.382;2022-12-07T01:18:32;27.10;;;14.83;;
20069;SDS011;10195;50.868;4.382;2022-12-07T01:21:06;30.97;;;15.60;;
20069;SDS011;10195;50.868;4.382;2022-12-07T01:23:32;23.17;;;14.57;;
20069;SDS011;10195;50.868;4.382;2022-12-07T01:26:03;25.47;;;15.33;;
20069;SDS011;10195;50.868;4.382;2022-12-07T01:28:31;26.37;;;16.03;;
20069;SDS011;10195;50.868;4.382;2022-12-07T01:31:04;29.40;;;15.87;;
20069;SDS011;10195;50.868;4.382;2022-12-07T01:33:32;31.53;;;15.80;;
20069;SDS011;10195;50.868;4.382;2022-12-07T01:36:07;23.90;;;14.07;;
20069;SDS011;10195;50.868;4.382;2022-12-07T01:38:44;26.03;;;14.97;;
20069;SDS011;10195;50.868;4.382;2022-12-07T01:41:11;21.47;;;14.40;;
20069;SDS011;10195;50.868;4.382;2022-12-07T01:44:05;27.23;;;14.97;;
20069;SDS011;10195;50.868;4.382;2022-12-07T01:46:36;24.27;;;14.23;;
20069;SDS011;10195;50.868;4.382;2022-12-07T01:49:03;24.57;;;14.93;;
20069;SDS011;10195;50.868;4.382;2022-12-07T01:51:35;21.83;;;14.37;;
20069;SDS011;10195;50.868;4.382;2022-12-07T01:54:03;26.17;;;14.10;;
20069;SDS011;10195;50.868;4.382;2022-12-07T01:56:29;25.67;;;14.47;;
20069;SDS011;10195;50.868;4.382;2022-12-07T01:58:57;26.03;;;13.90;;
20069;SDS011;10195;50.868;4.382;2022-12-07T02:01:24;22.70;;;13.07;;
20069;SDS011;10195;50.868;4.382;2022-12-07T02:03:50;23.43;;;13.93;;
20069;SDS011;10195;50.868;4.382;2022-12-07T02:06:17;25.93;;;13.53;;
20069;SDS011;10195;50.868;4.382;2022-12-07T02:08:45;21.50;;;14.03;;
20069;SDS011;10195;50.868;4.382;2022-12-07T02:11:11;21.10;;;13.73;;
20069;SDS011;10195;50.868;4.382;2022-12-07T02:13:38;19.03;;;13.30;;
20069;SDS011;10195;50.868;4.382;2022-12-07T02:21:58;27.70;;;14.20;;
20069;SDS011;10195;50.868;4.382;2022-12-07T02:29:53;18.30;;;12.07;;
20069;SDS011;10195;50.868;4.382;2022-12-07T02:35:23;17.93;;;12.13;;
20069;SDS011;10195;50.868;4.382;2022-12-07T02:38:13;19.80;;;13.20;;
20069;SDS011;10195;50.868;4.382;2022-12-07T02:41:12;18.87;;;11.93;;
20069;SDS011;10195;50.868;4.382;2022-12-07T02:43:46;21.70;;;12.67;;
20069;SDS011;10195;50.868;4.382;2022-12-07T02:46:17;22.60;;;13.03;;
20069;SDS011;10195;50.868;4.382;2022-12-07T02:48:58;21.23;;;12.50;;
20069;SDS011;10195;50.868;4.382;2022-12-07T02:51:25;22.80;;;12.57;;
20069;SDS011;10195;50.868;4.382;2022-12-07T02:53:55;21.77;;;13.10;;
20069;SDS011;10195;50.868;4.382;2022-12-07T02:56:37;22.13;;;12.40;;
20069;SDS011;10195;50.868;4.382;2022-12-07T03:08:31;18.73;;;12.13;;
20069;SDS011;10195;50.868;4.382;2022-12-07T03:11:21;20.50;;;13.03;;
20069;SDS011;10195;50.868;4.382;2022-12-07T03:16:41;22.37;;;12.60;;
20069;SDS011;10195;50.868;4.382;2022-12-07T03:19:15;21.30;;;12.40;;
20069;SDS011;10195;50.868;4.382;2022-12-07T03:21:47;22.67;;;13.03;;
20069;SDS011;10195;50.868;4.382;2022-12-07T03:24:19;19.57;;;12.20;;
20069;SDS011;10195;50.868;4.382;2022-12-07T03:26:50;25.43;;;12.67;;
20069;SDS011;10195;50.868;4.382;2022-12-07T03:29:23;21.93;;;12.53;;
20069;SDS011;10195;50.868;4.382;2022-12-07T03:32:22;20.80;;;12.53;;
20069;SDS011;10195;50.868;4.382;2022-12-07T03:34:57;23.97;;;12.03;;
20069;SDS011;10195;50.868;4.382;2022-12-07T03:37:40;20.80;;;12.53;;
20069;SDS011;10195;50.868;4.382;2022-12-07T03:40:25;21.37;;;12.13;;
20069;SDS011;10195;50.868;4.382;2022-12-07T03:42:55;20.43;;;11.73;;
20069;SDS011;10195;50.868;4.382;2022-12-07T03:45:30;17.63;;;12.13;;
20069;SDS011;10195;50.868;4.382;2022-12-07T03:53:48;20.57;;;12.37;;
20069;SDS011;10195;50.868;4.382;2022-12-07T03:56:25;21.37;;;12.37;;
20069;SDS011;10195;50.868;4.382;2022-12-07T03:58:52;20.97;;;11.97;;
20069;SDS011;10195;50.868;4.382;2022-12-07T04:01:18;18.60;;;12.30;;
20069;SDS011;10195;50.868;4.382;2022-12-07T04:03:44;20.40;;;13.00;;
20069;SDS011;10195;50.868;4.382;2022-12-07T04:06:10;20.03;;;11.63;;
20069;SDS011;10195;50.868;4.382;2022-12-07T04:08:36;24.60;;;13.10;;
20069;SDS011;10195;50.868;4.382;2022-12-07T04:11:01;20.17;;;12.47;;
20069;SDS011;10195;50.868;4.382;2022-12-07T04:13:27;18.90;;;11.67;;
20069;SDS011;10195;50.868;4.382;2022-12-07T04:15:53;20.77;;;12.50;;
20069;SDS011;10195;50.868;4.382;2022-12-07T04:18:18;24.30;;;12.70;;
20069;SDS011;10195;50.868;4.382;2022-12-07T04:20:45;22.80;;;11.67;;
20069;SDS011;10195;50.868;4.382;2022-12-07T04:23:11;22.70;;;12.47;;
20069;SDS011;10195;50.868;4.382;2022-12-07T04:25:37;20.63;;;12.07;;
20069;SDS011;10195;50.868;4.382;2022-12-07T04:28:02;19.67;;;12.37;;
20069;SDS011;10195;50.868;4.382;2022-12-07T04:30:28;22.53;;;12.57;;
20069;SDS011;10195;50.868;4.382;2022-12-07T04:32:54;20.63;;;12.13;;
20069;SDS011;10195;50.868;4.382;2022-12-07T04:35:19;19.90;;;13.07;;
20069;SDS011;10195;50.868;4.382;2022-12-07T04:37:45;24.07;;;12.83;;
20069;SDS011;10195;50.868;4.382;2022-12-07T04:40:10;20.40;;;12.87;;
20069;SDS011;10195;50.868;4.382;2022-12-07T04:42:39;20.63;;;13.03;;
20069;SDS011;10195;50.868;4.382;2022-12-07T04:45:05;23.87;;;13.50;;
20069;SDS011;10195;50.868;4.382;2022-12-07T04:47:31;27.83;;;14.80;;
20069;SDS011;10195;50.868;4.382;2022-12-07T04:49:56;25.40;;;12.70;;
20069;SDS011;10195;50.868;4.382;2022-12-07T04:52:22;29.53;;;14.53;;
20069;SDS011;10195;50.868;4.382;2022-12-07T04:54:47;22.10;;;14.10;;
20069;SDS011;10195;50.868;4.382;2022-12-07T04:57:13;24.07;;;14.53;;
20069;SDS011;10195;50.868;4.382;2022-12-07T04:59:39;23.37;;;14.70;;
20069;SDS011;10195;50.868;4.382;2022-12-07T05:02:04;23.90;;;15.13;;
20069;SDS011;10195;50.868;4.382;2022-12-07T05:04:30;22.57;;;14.13;;
20069;SDS011;10195;50.868;4.382;2022-12-07T05:06:55;26.00;;;14.13;;
20069;SDS011;10195;50.868;4.382;2022-12-07T05:09:21;21.13;;;14.13;;
20069;SDS011;10195;50.868;4.382;2022-12-07T05:11:47;31.27;;;13.83;;
20069;SDS011;10195;50.868;4.382;2022-12-07T05:14:17;24.27;;;13.57;;
20069;SDS011;10195;50.868;4.382;2022-12-07T05:16:45;20.83;;;14.20;;
20069;SDS011;10195;50.868;4.382;2022-12-07T05:19:13;21.50;;;14.87;;
20069;SDS011;10195;50.868;4.382;2022-12-07T05:21:39;29.40;;;14.40;;
20069;SDS011;10195;50.868;4.382;2022-12-07T05:24:06;21.93;;;14.53;;
20069;SDS011;10195;50.868;4.382;2022-12-07T05:26:32;25.10;;;13.90;;
20069;SDS011;10195;50.868;4.382;2022-12-07T05:28:58;26.43;;;14.37;;
20069;SDS011;10195;50.868;4.382;2022-12-07T05:31:24;22.00;;;14.37;;
20069;SDS011;10195;50.868;4.382;2022-12-07T05:33:51;27.80;;;14.60;;
20069;SDS011;10195;50.868;4.382;2022-12-07T05:36:17;21.70;;;12.63;;
20069;SDS011;10195;50.868;4.382;2022-12-07T05:38:43;23.53;;;13.40;;
20069;SDS011;10195;50.868;4.382;2022-12-07T05:41:09;22.20;;;14.87;;
20069;SDS011;10195;50.868;4.382;2022-12-07T05:43:57;22.80;;;13.20;;
20069;SDS011;10195;50.868;4.382;2022-12-07T05:46:23;24.00;;;14.10;;
20069;SDS011;10195;50.868;4.382;2022-12-07T05:48:49;25.90;;;14.33;;
20069;SDS011;10195;50.868;4.382;2022-12-07T05:51:14;23.53;;;13.17;;
20069;SDS011;10195;50.868;4.382;2022-12-07T05:53:40;17.53;;;12.37;;
20069;SDS011;10195;50.868;4.382;2022-12-07T05:56:05;20.33;;;12.13;;
20069;SDS011;10195;50.868;4.382;2022-12-07T05:58:31;22.90;;;12.80;;
20069;SDS011;10195;50.868;4.382;2022-12-07T06:01:15;25.10;;;12.83;;
20069;SDS011;10195;50.868;4.382;2022-12-07T06:03:41;24.77;;;13.20;;
20069;SDS011;10195;50.868;4.382;2022-12-07T06:06:07;22.03;;;12.20;;
20069;SDS011;10195;50.868;4.382;2022-12-07T06:08:32;21.57;;;13.07;;
20069;SDS011;10195;50.868;4.382;2022-12-07T06:10:58;23.07;;;12.37;;
20069;SDS011;10195;50.868;4.382;2022-12-07T06:13:42;21.77;;;12.00;;
20069;SDS011;10195;50.868;4.382;2022-12-07T06:16:08;18.20;;;10.87;;
20069;SDS011;10195;50.868;4.382;2022-12-07T06:18:33;20.13;;;12.03;;
20069;SDS011;10195;50.868;4.382;2022-12-07T06:20:59;19.97;;;11.80;;
20069;SDS011;10195;50.868;4.382;2022-12-07T06:23:24;23.00;;;12.00;;
20069;SDS011;10195;50.868;4.382;2022-12-07T06:25:50;17.20;;;10.60;;
20069;SDS011;10195;50.868;4.382;2022-12-07T06:28:16;16.47;;;10.67;;
20069;SDS011;10195;50.868;4.382;2022-12-07T06:30:41;16.93;;;10.50;;
20069;SDS011;10195;50.868;4.382;2022-12-07T06:33:07;16.67;;;10.80;;
20069;SDS011;10195;50.868;4.382;2022-12-07T06:35:33;19.43;;;10.80;;
20069;SDS011;10195;50.868;4.382;2022-12-07T06:37:58;16.20;;;10.83;;
20069;SDS011;10195;50.868;4.382;2022-12-07T06:40:24;18.73;;;11.70;;
20069;SDS011;10195;50.868;4.382;2022-12-07T06:42:50;22.43;;;11.97;;
20069;SDS011;10195;50.868;4.382;2022-12-07T06:45:15;20.27;;;11.40;;
20069;SDS011;10195;50.868;4.382;2022-12-07T06:47:41;22.23;;;11.77;;
20069;SDS011;10195;50.868;4.382;2022-12-07T06:50:07;16.13;;;10.63;;
20069;SDS011;10195;50.868;4.382;2022-12-07T06:52:33;18.27;;;9.90;;
20069;SDS011;10195;50.868;4.382;2022-12-07T06:54:59;16.57;;;10.80;;
20069;SDS011;10195;50.868;4.382;2022-12-07T06:57:25;21.83;;;10.73;;
20069;SDS011;10195;50.868;4.382;2022-12-07T06:59:51;19.70;;;10.97;;
20069;SDS011;10195;50.868;4.382;2022-12-07T07:02:16;17.80;;;11.13;;
20069;SDS011;10195;50.868;4.382;2022-12-07T07:04:42;26.67;;;10.17;;
20069;SDS011;10195;50.868;4.382;2022-12-07T07:07:08;17.53;;;11.30;;
20069;SDS011;10195;50.868;4.382;2022-12-07T07:09:34;24.00;;;10.13;;
20069;SDS011;10195;50.868;4.382;2022-12-07T07:11:59;23.27;;;10.53;;
20069;SDS011;10195;50.868;4.382;2022-12-07T07:14:25;17.00;;;10.60;;
20069;SDS011;10195;50.868;4.382;2022-12-07T07:16:51;17.87;;;10.73;;
20069;SDS011;10195;50.868;4.382;2022-12-07T07:19:17;19.90;;;10.63;;
20069;SDS011;10195;50.868;4.382;2022-12-07T07:21:43;19.83;;;11.13;;
20069;SDS011;10195;50.868;4.382;2022-12-07T07:24:08;19.57;;;10.23;;
20069;SDS011;10195;50.868;4.382;2022-12-07T07:26:34;19.73;;;11.40;;
20069;SDS011;10195;50.868;4.382;2022-12-07T07:29:00;17.83;;;10.73;;
20069;SDS011;10195;50.868;4.382;2022-12-07T07:31:26;15.63;;;10.33;;
20069;SDS011;10195;50.868;4.382;2022-12-07T07:33:51;15.00;;;10.53;;
20069;SDS011;10195;50.868;4.382;2022-12-07T07:36:17;23.00;;;10.30;;
20069;SDS011;10195;50.868;4.382;2022-12-07T07:38:46;17.27;;;10.40;;
20069;SDS011;10195;50.868;4.382;2022-12-07T07:41:11;17.17;;;9.97;;
20069;SDS011;10195;50.868;4.382;2022-12-07T07:43:37;16.97;;;9.70;;
20069;SDS011;10195;50.868;4.382;2022-12-07T07:46:03;17.13;;;10.23;;
20069;SDS011;10195;50.868;4.382;2022-12-07T07:48:28;24.77;;;11.30;;
20069;SDS011;10195;50.868;4.382;2022-12-07T07:50:57;21.33;;;11.17;;
20069;SDS011;10195;50.868;4.382;2022-12-07T07:53:22;34.00;;;14.30;;
20069;SDS011;10195;50.868;4.382;2022-12-07T07:55:52;21.97;;;11.20;;
20069;SDS011;10195;50.868;4.382;2022-12-07T07:58:18;17.97;;;10.43;;
20069;SDS011;10195;50.868;4.382;2022-12-07T08:00:44;19.07;;;10.67;;
20069;SDS011;10195;50.868;4.382;2022-12-07T08:03:09;18.97;;;10.23;;
20069;SDS011;10195;50.868;4.382;2022-12-07T08:05:36;20.63;;;10.87;;
20069;SDS011;10195;50.868;4.382;2022-12-07T08:08:02;18.57;;;9.87;;
20069;SDS011;10195;50.868;4.382;2022-12-07T08:10:28;18.00;;;10.53;;
20069;SDS011;10195;50.868;4.382;2022-12-07T08:12:53;22.87;;;10.40;;
20069;SDS011;10195;50.868;4.382;2022-12-07T08:15:39;14.50;;;9.87;;
20069;SDS011;10195;50.868;4.382;2022-12-07T08:18:07;22.73;;;10.10;;
20069;SDS011;10195;50.868;4.382;2022-12-07T08:20:33;18.40;;;10.73;;
20069;SDS011;10195;50.868;4.382;2022-12-07T08:23:00;22.77;;;10.57;;
20069;SDS011;10195;50.868;4.382;2022-12-07T08:25:26;24.70;;;10.93;;
20069;SDS011;10195;50.868;4.382;2022-12-07T08:27:52;18.93;;;10.80;;
20069;SDS011;10195;50.868;4.382;2022-12-07T08:30:18;24.67;;;11.03;;
20069;SDS011;10195;50.868;4.382;2022-12-07T08:32:44;16.93;;;10.00;;
20069;SDS011;10195;50.868;4.382;2022-12-07T08:35:10;19.00;;;10.03;;
20069;SDS011;10195;50.868;4.382;2022-12-07T08:37:37;18.10;;;9.57;;
20069;SDS011;10195;50.868;4.382;2022-12-07T08:40:03;20.70;;;10.17;;
20069;SDS011;10195;50.868;4.382;2022-12-07T08:42:30;20.37;;;10.87;;
20069;SDS011;10195;50.868;4.382;2022-12-07T08:45:03;16.80;;;10.00;;
20069;SDS011;10195;50.868;4.382;2022-12-07T08:47:30;16.60;;;10.17;;
20069;SDS011;10195;50.868;4.382;2022-12-07T08:49:56;20.97;;;9.27;;
20069;SDS011;10195;50.868;4.382;2022-12-07T08:52:22;17.90;;;10.67;;
20069;SDS011;10195;50.868;4.382;2022-12-07T08:54:47;17.97;;;9.53;;
20069;SDS011;10195;50.868;4.382;2022-12-07T08:57:13;18.43;;;8.87;;
20069;SDS011;10195;50.868;4.382;2022-12-07T08:59:39;15.30;;;8.23;;
20069;SDS011;10195;50.868;4.382;2022-12-07T09:02:05;16.47;;;7.77;;
20069;SDS011;10195;50.868;4.382;2022-12-07T09:04:31;15.53;;;7.47;;
20069;SDS011;10195;50.868;4.382;2022-12-07T09:06:57;15.67;;;7.77;;
20069;SDS011;10195;50.868;4.382;2022-12-07T09:09:23;15.17;;;6.93;;
20069;SDS011;10195;50.868;4.382;2022-12-07T09:11:49;16.10;;;6.87;;
20069;SDS011;10195;50.868;4.382;2022-12-07T09:14:14;17.03;;;7.33;;
20069;SDS011;10195;50.868;4.382;2022-12-07T09:16:40;14.27;;;7.07;;
20069;SDS011;10195;50.868;4.382;2022-12-07T09:19:06;14.07;;;6.93;;
20069;SDS011;10195;50.868;4.382;2022-12-07T09:21:33;15.03;;;8.30;;
20069;SDS011;10195;50.868;4.382;2022-12-07T09:23:58;14.97;;;7.70;;
20069;SDS011;10195;50.868;4.382;2022-12-07T09:26:24;16.27;;;8.30;;
20069;SDS011;10195;50.868;4.382;2022-12-07T09:28:50;13.63;;;9.40;;
20069;SDS011;10195;50.868;4.382;2022-12-07T09:31:15;20.40;;;9.10;;
20069;SDS011;10195;50.868;4.382;2022-12-07T09:33:41;15.83;;;9.03;;
20069;SDS011;10195;50.868;4.382;2022-12-07T09:36:07;13.73;;;8.83;;
20069;SDS011;10195;50.868;4.382;2022-12-07T09:38:34;20.37;;;8.93;;
20069;SDS011;10195;50.868;4.382;2022-12-07T09:41:04;15.73;;;8.73;;
20069;SDS011;10195;50.868;4.382;2022-12-07T09:43:31;20.50;;;9.10;;
20069;SDS011;10195;50.868;4.382;2022-12-07T09:45:57;15.40;;;9.03;;
20069;SDS011;10195;50.868;4.382;2022-12-07T09:48:24;18.50;;;7.93;;
20069;SDS011;10195;50.868;4.382;2022-12-07T09:50:55;13.77;;;8.40;;
20069;SDS011;10195;50.868;4.382;2022-12-07T09:53:32;17.03;;;8.77;;
20069;SDS011;10195;50.868;4.382;2022-12-07T09:56:00;14.30;;;8.17;;
20069;SDS011;10195;50.868;4.382;2022-12-07T09:58:28;15.97;;;8.03;;
20069;SDS011;10195;50.868;4.382;2022-12-07T10:03:33;14.10;;;7.33;;
20069;SDS011;10195;50.868;4.382;2022-12-07T10:06:00;15.97;;;7.53;;
20069;SDS011;10195;50.868;4.382;2022-12-07T10:08:27;14.77;;;7.13;;
20069;SDS011;10195;50.868;4.382;2022-12-07T10:10:53;17.93;;;7.70;;
20069;SDS011;10195;50.868;4.382;2022-12-07T10:18:49;14.50;;;7.87;;
20069;SDS011;10195;50.868;4.382;2022-12-07T10:26:34;14.80;;;8.37;;
20069;SDS011;10195;50.868;4.382;2022-12-07T10:31:40;18.03;;;7.37;;
20069;SDS011;10195;50.868;4.382;2022-12-07T10:34:15;13.00;;;6.83;;
20069;SDS011;10195;50.868;4.382;2022-12-07T10:36:50;15.93;;;6.50;;
20069;SDS011;10195;50.868;4.382;2022-12-07T10:39:18;16.50;;;7.90;;
20069;SDS011;10195;50.868;4.382;2022-12-07T10:41:58;16.80;;;7.53;;
20069;SDS011;10195;50.868;4.382;2022-12-07T10:44:26;16.67;;;6.77;;
20069;SDS011;10195;50.868;4.382;2022-12-07T10:55:33;10.63;;;6.03;;
20069;SDS011;10195;50.868;4.382;2022-12-07T11:11:49;13.90;;;6.77;;
20069;SDS011;10195;50.868;4.382;2022-12-07T11:14:19;12.87;;;6.63;;
20069;SDS011;10195;50.868;4.382;2022-12-07T11:17:03;13.40;;;5.97;;
20069;SDS011;10195;50.868;4.382;2022-12-07T11:22:41;12.80;;;5.83;;
20069;SDS011;10195;50.868;4.382;2022-12-07T11:25:20;11.10;;;5.60;;
20069;SDS011;10195;50.868;4.382;2022-12-07T11:30:57;9.97;;;4.93;;
20069;SDS011;10195;50.868;4.382;2022-12-07T11:33:45;14.37;;;5.13;;
20069;SDS011;10195;50.868;4.382;2022-12-07T11:36:23;12.67;;;5.23;;
20069;SDS011;10195;50.868;4.382;2022-12-07T11:42:05;12.87;;;5.47;;
20069;SDS011;10195;50.868;4.382;2022-12-07T11:44:52;11.20;;;5.27;;
20069;SDS011;10195;50.868;4.382;2022-12-07T11:47:26;9.87;;;5.20;;
20069;SDS011;10195;50.868;4.382;2022-12-07T11:55:42;11.80;;;5.67;;
20069;SDS011;10195;50.868;4.382;2022-12-07T11:58:20;12.40;;;4.73;;
20069;SDS011;10195;50.868;4.382;2022-12-07T12:03:40;10.10;;;4.97;;
20069;SDS011;10195;50.868;4.382;2022-12-07T12:06:22;13.77;;;5.30;;
20069;SDS011;10195;50.868;4.382;2022-12-07T12:17:25;11.27;;;3.67;;
20069;SDS011;10195;50.868;4.382;2022-12-07T12:20:21;10.67;;;3.37;;
20069;SDS011;10195;50.868;4.382;2022-12-07T12:25:27;4.43;;;2.90;;
20069;SDS011;10195;50.868;4.382;2022-12-07T12:27:57;11.40;;;4.47;;
20069;SDS011;10195;50.868;4.382;2022-12-07T12:30:26;8.70;;;3.80;;
20069;SDS011;10195;50.868;4.382;2022-12-07T12:33:03;9.00;;;4.27;;
20069;SDS011;10195;50.868;4.382;2022-12-07T12:35:38;9.93;;;3.97;;
20069;SDS011;10195;50.868;4.382;2022-12-07T12:40:45;7.30;;;3.60;;
20069;SDS011;10195;50.868;4.382;2022-12-07T12:48:55;11.37;;;2.40;;
20069;SDS011;10195;50.868;4.382;2022-12-07T12:51:40;9.00;;;2.53;;
20069;SDS011;10195;50.868;4.382;2022-12-07T12:54:12;11.00;;;2.77;;
20069;SDS011;10195;50.868;4.382;2022-12-07T13:01:47;7.00;;;3.10;;
20069;SDS011;10195;50.868;4.382;2022-12-07T13:06:49;6.90;;;2.53;;
20069;SDS011;10195;50.868;4.382;2022-12-07T13:09:33;8.27;;;2.70;;
20069;SDS011;10195;50.868;4.382;2022-12-07T13:12:01;6.50;;;2.57;;
20069;SDS011;10195;50.868;4.382;2022-12-07T13:20:00;5.60;;;3.07;;
20069;SDS011;10195;50.868;4.382;2022-12-07T13:28:06;7.10;;;3.37;;
20069;SDS011;10195;50.868;4.382;2022-12-07T13:30:38;8.57;;;3.07;;
20069;SDS011;10195;50.868;4.382;2022-12-07T13:33:18;7.93;;;2.60;;
20069;SDS011;10195;50.868;4.382;2022-12-07T13:35:44;4.13;;;2.47;;
20069;SDS011;10195;50.868;4.382;2022-12-07T13:38:32;10.07;;;2.40;;
20069;SDS011;10195;50.868;4.382;2022-12-07T13:41:19;7.67;;;2.40;;
20069;SDS011;10195;50.868;4.382;2022-12-07T13:46:21;8.97;;;3.23;;
20069;SDS011;10195;50.868;4.382;2022-12-07T13:48:52;7.03;;;2.70;;
20069;SDS011;10195;50.868;4.382;2022-12-07T13:51:33;10.10;;;2.87;;
20069;SDS011;10195;50.868;4.382;2022-12-07T13:54:01;7.57;;;3.03;;
20069;SDS011;10195;50.868;4.382;2022-12-07T13:56:34;9.60;;;3.57;;
20069;SDS011;10195;50.868;4.382;2022-12-07T13:59:01;9.67;;;3.20;;
20069;SDS011;10195;50.868;4.382;2022-12-07T14:01:28;11.87;;;3.33;;
20069;SDS011;10195;50.868;4.382;2022-12-07T14:03:56;6.47;;;2.53;;
20069;SDS011;10195;50.868;4.382;2022-12-07T14:06:49;14.10;;;3.03;;
20069;SDS011;10195;50.868;4.382;2022-12-07T14:11:43;3.53;;;1.77;;
20069;SDS011;10195;50.868;4.382;2022-12-07T14:14:10;9.00;;;1.87;;
20069;SDS011;10195;50.868;4.382;2022-12-07T14:16:41;2.40;;;1.53;;
20069;SDS011;10195;50.868;4.382;2022-12-07T14:24:57;5.00;;;2.57;;
20069;SDS011;10195;50.868;4.382;2022-12-07T14:27:39;6.60;;;3.00;;
20069;SDS011;10195;50.868;4.382;2022-12-07T14:30:16;7.40;;;2.70;;
20069;SDS011;10195;50.868;4.382;2022-12-07T14:32:42;6.27;;;3.30;;
20069;SDS011;10195;50.868;4.382;2022-12-07T14:35:14;8.07;;;3.40;;
20069;SDS011;10195;50.868;4.382;2022-12-07T14:37:41;9.03;;;3.80;;
20069;SDS011;10195;50.868;4.382;2022-12-07T14:40:12;12.53;;;3.67;;
20069;SDS011;10195;50.868;4.382;2022-12-07T14:42:39;13.40;;;4.30;;
20069;SDS011;10195;50.868;4.382;2022-12-07T14:45:11;6.23;;;3.67;;
20069;SDS011;10195;50.868;4.382;2022-12-07T14:47:42;6.70;;;2.90;;
20069;SDS011;10195;50.868;4.382;2022-12-07T14:50:11;5.97;;;2.87;;
20069;SDS011;10195;50.868;4.382;2022-12-07T14:52:39;8.90;;;2.80;;
20069;SDS011;10195;50.868;4.382;2022-12-07T14:55:13;7.57;;;2.43;;
20069;SDS011;10195;50.868;4.382;2022-12-07T14:57:45;6.37;;;2.77;;
20069;SDS011;10195;50.868;4.382;2022-12-07T15:00:14;7.27;;;2.87;;
20069;SDS011;10195;50.868;4.382;2022-12-07T15:02:41;5.53;;;2.50;;
20069;SDS011;10195;50.868;4.382;2022-12-07T15:05:07;6.53;;;2.77;;
20069;SDS011;10195;50.868;4.382;2022-12-07T15:07:32;5.73;;;2.13;;
20069;SDS011;10195;50.868;4.382;2022-12-07T15:09:58;8.87;;;2.90;;
20069;SDS011;10195;50.868;4.382;2022-12-07T15:12:24;8.00;;;2.90;;
20069;SDS011;10195;50.868;4.382;2022-12-07T15:14:49;9.50;;;2.53;;
20069;SDS011;10195;50.868;4.382;2022-12-07T15:17:15;4.37;;;2.43;;
20069;SDS011;10195;50.868;4.382;2022-12-07T15:19:41;6.73;;;2.73;;
20069;SDS011;10195;50.868;4.382;2022-12-07T15:22:07;6.10;;;2.83;;
20069;SDS011;10195;50.868;4.382;2022-12-07T15:24:35;9.47;;;3.30;;
20069;SDS011;10195;50.868;4.382;2022-12-07T15:27:01;10.90;;;3.20;;
20069;SDS011;10195;50.868;4.382;2022-12-07T15:29:27;11.23;;;3.30;;
20069;SDS011;10195;50.868;4.382;2022-12-07T15:31:52;9.60;;;3.90;;
20069;SDS011;10195;50.868;4.382;2022-12-07T15:34:18;19.73;;;7.83;;
20069;SDS011;10195;50.868;4.382;2022-12-07T15:36:44;8.57;;;4.40;;
20069;SDS011;10195;50.868;4.382;2022-12-07T15:39:10;12.90;;;4.23;;
20069;SDS011;10195;50.868;4.382;2022-12-07T15:41:36;11.27;;;3.00;;
20069;SDS011;10195;50.868;4.382;2022-12-07T15:44:02;9.73;;;3.40;;
20069;SDS011;10195;50.868;4.382;2022-12-07T15:46:46;8.77;;;3.20;;
20069;SDS011;10195;50.868;4.382;2022-12-07T15:49:13;6.43;;;3.40;;
20069;SDS011;10195;50.868;4.382;2022-12-07T15:51:43;10.40;;;3.27;;
20069;SDS011;10195;50.868;4.382;2022-12-07T15:54:18;5.67;;;3.47;;
20069;SDS011;10195;50.868;4.382;2022-12-07T15:56:46;10.87;;;4.40;;
20069;SDS011;10195;50.868;4.382;2022-12-07T15:59:12;11.67;;;4.13;;
20069;SDS011;10195;50.868;4.382;2022-12-07T16:01:37;9.37;;;3.93;;
20069;SDS011;10195;50.868;4.382;2022-12-07T16:04:03;10.03;;;4.67;;
20069;SDS011;10195;50.868;4.382;2022-12-07T16:06:29;7.73;;;4.37;;
20069;SDS011;10195;50.868;4.382;2022-12-07T16:08:54;8.90;;;5.50;;
20069;SDS011;10195;50.868;4.382;2022-12-07T16:11:20;8.57;;;4.60;;
20069;SDS011;10195;50.868;4.382;2022-12-07T16:13:46;10.03;;;4.73;;
20069;SDS011;10195;50.868;4.382;2022-12-07T16:16:12;7.73;;;4.80;;
20069;SDS011;10195;50.868;4.382;2022-12-07T16:18:39;9.93;;;4.90;;
20069;SDS011;10195;50.868;4.382;2022-12-07T16:21:06;8.83;;;4.90;;
20069;SDS011;10195;50.868;4.382;2022-12-07T16:23:32;10.03;;;4.80;;
20069;SDS011;10195;50.868;4.382;2022-12-07T16:26:07;9.20;;;5.07;;
20069;SDS011;10195;50.868;4.382;2022-12-07T16:28:37;8.73;;;4.40;;
20069;SDS011;10195;50.868;4.382;2022-12-07T16:31:04;12.13;;;4.47;;
20069;SDS011;10195;50.868;4.382;2022-12-07T16:33:41;12.47;;;4.97;;
20069;SDS011;10195;50.868;4.382;2022-12-07T16:36:08;9.47;;;4.40;;
20069;SDS011;10195;50.868;4.382;2022-12-07T16:38:35;9.03;;;3.93;;
20069;SDS011;10195;50.868;4.382;2022-12-07T16:41:01;9.37;;;4.30;;
20069;SDS011;10195;50.868;4.382;2022-12-07T16:43:27;11.53;;;4.77;;
20069;SDS011;10195;50.868;4.382;2022-12-07T16:45:53;9.70;;;4.73;;
20069;SDS011;10195;50.868;4.382;2022-12-07T16:48:18;10.13;;;4.97;;
20069;SDS011;10195;50.868;4.382;2022-12-07T16:50:44;14.33;;;5.33;;
20069;SDS011;10195;50.868;4.382;2022-12-07T16:53:10;11.13;;;5.83;;
20069;SDS011;10195;50.868;4.382;2022-12-07T16:55:40;10.13;;;5.30;;
20069;SDS011;10195;50.868;4.382;2022-12-07T16:58:08;10.77;;;5.90;;
20069;SDS011;10195;50.868;4.382;2022-12-07T17:00:35;10.90;;;5.70;;